Time;durP1;ratioP1;P1;durP2;ratioP2;P2;SDS_P1;SDS_P2;PMS_P1;PMS_P2;Temp;Humidity;BMP_temperature;BMP_pressure;BME280_temperature;BME280_humidity;BME280_pressure;Samples;Min_cycle;Max_cycle;Signal;HPM_P1;HPM_P2
2023/01/04 00:01:16;;;;;;;8.17;6.40;;;;;;;7.11;55.49;101082.44;10471364;28;20239;-34
2023/01/04 00:06:19;;;;;;;8.10;6.17;;;;;;;6.91;55.66;101096.59;10470177;28;20547;-34
2023/01/04 00:11:22;;;;;;;6.57;5.80;;;;;;;6.53;56.26;101098.75;10477823;28;20237;-33
2023/01/04 00:16:26;;;;;;;7.07;6.37;;;;;;;6.00;56.98;101102.09;10468038;28;20320;-34
2023/01/04 00:21:29;;;;;;;7.33;6.23;;;;;;;6.95;56.38;101096.22;10479330;28;20228;-34
2023/01/04 00:26:33;;;;;;;9.23;7.00;;;;;;;6.46;57.39;101104.69;10477583;28;20238;-34
2023/01/04 00:31:34;;;;;;;8.43;6.80;;;;;;;6.50;56.21;101109.66;10475175;28;20800;-34
2023/01/04 00:36:36;;;;;;;9.33;8.33;;;;;;;6.93;55.85;101099.97;10479292;28;20357;-33
2023/01/04 00:41:50;;;;;;;8.93;7.73;;;;;;;6.17;57.03;101102.59;10483192;28;20227;-34
2023/01/04 00:47:02;;;;;;;10.57;8.83;;;;;;;6.53;56.75;101096.09;10474562;28;20243;-34
2023/01/04 00:52:05;;;;;;;11.03;9.37;;;;;;;6.20;56.58;101087.22;10475016;28;20320;-34
2023/01/04 00:57:07;;;;;;;10.43;9.40;;;;;;;7.04;55.61;101091.94;10478800;28;20234;-34
2023/01/04 01:02:09;;;;;;;10.87;8.53;;;;;;;6.78;55.74;101086.97;10482447;28;20281;-34
2023/01/04 01:07:11;;;;;;;12.40;9.57;;;;;;;6.96;55.96;101113.84;10461704;28;20318;-34
2023/01/04 01:12:13;;;;;;;13.30;9.40;;;;;;;6.91;55.62;101101.91;10481999;28;20331;-34
2023/01/04 01:17:15;;;;;;;12.03;9.33;;;;;;;6.73;55.24;101112.22;10481046;28;20563;-34
2023/01/04 01:22:17;;;;;;;12.53;10.40;;;;;;;5.72;56.04;101102.59;10479154;28;20242;-34
2023/01/04 01:27:18;;;;;;;12.33;10.70;;;;;;;6.21;54.97;101101.34;10476428;28;20947;-34
2023/01/04 01:32:43;;;;;;;15.53;11.93;;;;;;;5.79;57.33;101115.28;10484887;28;20247;-34
2023/01/04 01:37:43;;;;;;;13.73;11.33;;;;;;;5.65;57.23;101121.66;10468121;28;20464;-34
2023/01/04 01:42:45;;;;;;;13.87;12.10;;;;;;;5.64;56.54;101121.81;10484133;28;20262;-34
2023/01/04 01:47:48;;;;;;;13.97;12.47;;;;;;;5.15;57.50;101110.47;10473129;28;20241;-34
2023/01/04 01:52:52;;;;;;;13.07;11.70;;;;;;;4.46;59.20;101084.63;10479708;28;20231;-35
2023/01/04 01:57:54;;;;;;;13.37;11.13;;;;;;;4.08;59.07;101064.34;10480670;28;20719;-35
2023/01/04 02:03:12;;;;;;;13.33;11.90;;;;;;;4.88;57.79;101087.69;10479189;28;20267;-35
2023/01/04 02:08:15;;;;;;;18.00;11.50;;;;;;;5.03;57.64;101087.47;10463244;28;20289;-36
2023/01/04 02:13:22;;;;;;;14.80;12.57;;;;;;;4.10;59.88;101043.88;10476887;28;20265;-36
2023/01/04 02:18:57;;;;;;;17.37;12.97;;;;;;;4.95;57.42;101067.69;10462084;28;20331;-36
2023/01/04 02:24:11;;;;;;;17.10;12.50;;;;;;;5.00;57.86;101062.06;10393032;28;20329;-35
2023/01/04 02:29:21;;;;;;;16.53;12.63;;;;;;;3.89;60.12;101024.28;10465884;28;20573;-35
2023/01/04 02:34:39;;;;;;;13.07;8.93;;;;;;;3.19;61.45;100985.94;10471021;28;20232;-36
2023/01/04 02:39:41;;;;;;;26.70;13.60;;;;;;;4.72;58.48;101048.19;10472744;28;20568;-36
2023/01/04 02:45:00;;;;;;;18.23;13.07;;;;;;;4.35;59.91;101040.31;10476015;28;20241;-34
2023/01/04 02:55:51;;;;;;;22.07;13.97;;;;;;;3.86;61.29;101020.03;10417051;28;20245;-36
2023/01/04 03:07:01;;;;;;;23.37;13.73;;;;;;;4.83;59.13;101041.25;10470428;28;20230;-36
2023/01/04 03:17:41;;;;;;;20.77;14.60;;;;;;;5.51;58.98;101016.50;10478422;28;20231;-36
2023/01/04 03:50:55;;;;;;;23.63;14.77;;;;;;;5.07;62.53;100977.53;10480071;28;20250;-35
2023/01/04 03:55:58;;;;;;;14.83;10.20;;;;;;;4.11;64.63;100959.97;10482508;28;20254;-35
2023/01/04 04:01:03;;;;;;;17.13;12.97;;;;;;;5.14;63.23;100938.94;10495356;28;20316;-36
2023/01/04 04:11:31;;;;;;;18.37;11.73;;;;;;;6.50;59.52;100959.84;10456820;22;20249;-34
2023/01/04 04:16:32;;;;;;;14.43;10.63;;;;;;;4.72;61.90;100973.94;10405164;28;20239;-37
2023/01/04 04:21:35;;;;;;;13.33;10.17;;;;;;;5.62;61.06;100938.69;10428504;28;20243;-37
2023/01/04 04:26:36;;;;;;;10.80;8.77;;;;;;;4.56;63.09;100968.97;10447688;28;20239;-37
2023/01/04 04:31:38;;;;;;;14.97;8.20;;;;;;;5.04;61.15;100953.88;10449886;28;20635;-36
2023/01/04 04:36:40;;;;;;;13.50;9.83;;;;;;;6.66;57.96;100960.25;10438431;28;20251;-36
2023/01/04 04:41:42;;;;;;;11.90;9.13;;;;;;;6.18;58.79;100948.28;10462183;28;20233;-36
2023/01/04 04:46:45;;;;;;;11.43;8.87;;;;;;;6.28;58.65;100958.16;10449746;28;20228;-37
2023/01/04 04:51:47;;;;;;;9.30;7.50;;;;;;;6.46;58.52;100959.28;10445438;28;20743;-36
2023/01/04 04:56:49;;;;;;;9.23;7.70;;;;;;;6.51;58.49;100970.38;10436941;28;20585;-37
2023/01/04 05:01:51;;;;;;;9.43;7.90;;;;;;;5.76;57.96;100963.28;10440659;28;20242;-37
2023/01/04 05:06:53;;;;;;;7.47;6.10;;;;;;;5.51;60.64;100926.22;10439615;28;20239;-35
2023/01/04 05:17:16;;;;;;;7.80;6.97;;;;;;;5.67;59.34;100951.56;10418801;28;20345;-35
2023/01/04 05:22:17;;;;;;;8.40;6.70;;;;;;;6.50;56.81;100974.03;10427534;28;20240;-35
2023/01/04 05:27:19;;;;;;;9.33;7.00;;;;;;;6.22;58.51;100970.97;10437120;28;20498;-37
2023/01/04 05:32:21;;;;;;;7.87;6.17;;;;;;;6.11;58.34;100964.88;10441813;28;20546;-34
2023/01/04 05:37:24;;;;;;;6.33;5.47;;;;;;;6.25;58.31;100973.38;10433508;28;20729;-35
2023/01/04 05:42:26;;;;;;;6.13;4.83;;;;;;;6.64;57.24;100986.16;10440116;28;20540;-35
2023/01/04 05:47:29;;;;;;;4.87;4.47;;;;;;;6.80;56.97;101002.53;10423063;28;20236;-35
2023/01/04 05:52:30;;;;;;;6.20;4.37;;;;;;;6.17;58.31;100956.41;10438063;28;20625;-37
2023/01/04 05:57:32;;;;;;;4.97;4.03;;;;;;;6.74;57.28;100999.53;10434283;28;20610;-35
2023/01/04 06:02:34;;;;;;;3.73;3.20;;;;;;;5.49;59.82;100972.47;10437783;28;20631;-35
2023/01/04 06:07:38;;;;;;;4.33;3.90;;;;;;;6.56;57.31;100983.28;10433810;28;20245;-34
2023/01/04 06:12:40;;;;;;;5.03;3.50;;;;;;;5.96;57.81;100951.88;10443896;28;20594;-35
2023/01/04 06:17:41;;;;;;;4.03;3.63;;;;;;;6.17;58.19;100967.03;10428163;28;20594;-35
2023/01/04 06:22:43;;;;;;;3.60;3.27;;;;;;;6.99;56.82;101008.97;10441578;28;20761;-35
2023/01/04 06:27:45;;;;;;;4.10;3.70;;;;;;;6.58;56.96;100984.00;10434120;28;20326;-35
2023/01/04 06:32:47;;;;;;;3.33;2.93;;;;;;;7.20;55.84;101026.72;10436786;28;20238;-37
2023/01/04 06:37:48;;;;;;;3.83;2.80;;;;;;;7.01;55.61;101015.00;10432736;28;20232;-35
2023/01/04 06:42:50;;;;;;;3.70;3.40;;;;;;;6.22;56.87;100989.59;10437119;28;20269;-35
2023/01/04 06:47:52;;;;;;;3.47;2.97;;;;;;;6.55;56.07;100985.13;10426264;28;20233;-35
2023/01/04 06:52:53;;;;;;;2.73;2.50;;;;;;;6.91;56.66;100998.13;10437509;28;20234;-34
2023/01/04 06:57:56;;;;;;;3.10;2.90;;;;;;;5.62;57.70;100964.38;10426124;28;20227;-37
2023/01/04 07:03:00;;;;;;;3.20;3.00;;;;;;;7.22;55.96;101025.59;10431437;28;20236;-35
2023/01/04 07:08:16;;;;;;;3.40;2.50;;;;;;;5.18;59.03;100972.19;10424250;28;20304;-35
2023/01/04 07:13:17;;;;;;;2.80;2.40;;;;;;;5.49;58.26;100975.13;10430558;28;20259;-35
2023/01/04 07:18:19;;;;;;;3.30;3.00;;;;;;;7.08;56.16;101012.66;10433983;28;20239;-35
2023/01/04 07:23:21;;;;;;;2.93;2.63;;;;;;;7.10;56.47;101016.03;10444928;28;20245;-37
2023/01/04 07:33:43;;;;;;;4.00;2.77;;;;;;;7.35;56.60;101020.06;10442825;28;20232;-37
2023/01/04 07:38:45;;;;;;;4.10;2.50;;;;;;;6.33;58.65;100961.28;10439713;28;20334;-37
2023/01/04 07:43:46;;;;;;;2.67;2.47;;;;;;;7.24;57.14;101004.19;10448024;28;20325;-35
2023/01/04 07:48:48;;;;;;;4.97;2.43;;;;;;;6.20;58.32;100964.97;10436539;28;20239;-37
2023/01/04 07:53:50;;;;;;;2.47;2.27;;;;;;;6.23;57.93;100956.72;10448760;28;20339;-37
2023/01/04 07:58:55;;;;;;;2.80;2.60;;;;;;;6.86;57.53;100965.75;10444931;28;20239;-37
2023/01/04 08:03:57;;;;;;;2.80;2.47;;;;;;;7.32;56.22;100978.56;10446454;28;20323;-37
2023/01/04 08:08:59;;;;;;;3.27;2.20;;;;;;;6.32;57.95;100952.47;10448327;28;20289;-37
2023/01/04 08:14:01;;;;;;;2.13;2.00;;;;;;;6.42;56.88;100947.22;10442994;28;20228;-37
2023/01/04 08:19:15;;;;;;;2.80;2.30;;;;;;;6.64;56.38;100922.31;10444992;28;20266;-37
2023/01/04 08:24:18;;;;;;;3.63;2.70;;;;;;;6.48;56.80;100912.16;10441161;28;20229;-37
2023/01/04 08:29:20;;;;;;;3.87;2.20;;;;;;;7.53;54.86;100964.38;10445251;28;20239;-37
2023/01/04 08:34:22;;;;;;;2.20;2.10;;;;;;;6.58;56.00;100915.72;10450016;28;20227;-37
2023/01/04 08:39:24;;;;;;;5.50;2.60;;;;;;;7.61;54.47;100983.19;10427320;28;20232;-37
2023/01/04 08:44:26;;;;;;;3.00;2.60;;;;;;;7.52;53.64;100981.31;10446340;28;20232;-37
2023/01/04 08:49:28;;;;;;;4.23;2.40;;;;;;;6.62;54.57;100937.56;10413509;28;20321;-38
2023/01/04 08:54:31;;;;;;;4.47;2.30;;;;;;;8.39;52.29;101001.16;10444895;28;20639;-35
2023/01/04 08:59:33;;;;;;;3.03;2.73;;;;;;;7.49;53.31;100979.78;10438044;28;20225;-37
2023/01/04 09:04:34;;;;;;;2.87;2.33;;;;;;;7.05;53.51;100965.00;10439997;28;20735;-37
2023/01/04 09:09:36;;;;;;;2.60;2.40;;;;;;;8.52;51.57;101008.84;10447685;28;20233;-37
2023/01/04 09:14:38;;;;;;;2.87;2.60;;;;;;;7.92;52.98;100975.16;10439157;28;20236;-37
2023/01/04 09:19:40;;;;;;;2.40;2.20;;;;;;;8.10;52.63;100986.81;10440243;28;20252;-37
2023/01/04 09:24:41;;;;;;;2.50;2.30;;;;;;;6.84;54.17;100925.13;10437978;28;20215;-37
2023/01/04 09:29:43;;;;;;;3.00;2.57;;;;;;;7.61;53.37;100961.00;10437048;28;20254;-37
2023/01/04 09:34:46;;;;;;;2.33;2.20;;;;;;;8.06;53.22;100979.22;10440155;28;20237;-37
2023/01/04 09:39:47;;;;;;;2.50;2.30;;;;;;;7.41;53.42;100944.13;10444923;28;20231;-37
2023/01/04 09:45:00;;;;;;;2.53;2.03;;;;;;;7.87;53.01;100940.06;10434858;28;20315;-37
2023/01/04 09:50:30;;;;;;;4.03;3.40;;;;;;;8.09;52.25;100955.78;10428071;28;20284;-35
2023/01/04 09:55:41;;;;;;;5.00;3.50;;;;;;;7.28;52.87;100918.59;10429228;28;20317;-35
2023/01/04 10:01:07;;;;;;;3.00;2.47;;;;;;;8.58;51.65;100981.63;10438930;28;20230;-35
2023/01/04 10:06:11;;;;;;;3.00;2.37;;;;;;;7.98;52.67;100921.25;10439962;28;20233;-37
2023/01/04 10:11:22;;;;;;;2.40;2.20;;;;;;;7.40;54.01;100894.53;10433738;28;20236;-37
2023/01/04 10:16:45;;;;;;;2.40;2.20;;;;;;;6.84;54.02;100883.41;10429809;28;20727;-37
2023/01/04 10:22:21;;;;;;;2.97;2.77;;;;;;;7.90;53.06;100913.16;10444117;28;20718;-37
2023/01/04 10:27:35;;;;;;;2.00;1.90;;;;;;;7.74;52.95;100909.16;10435980;28;20765;-38
2023/01/04 10:32:45;;;;;;;3.37;2.63;;;;;;;8.24;52.14;100912.72;10429770;28;20589;-37
2023/01/04 10:37:57;;;;;;;4.87;3.73;;;;;;;8.37;52.88;100905.28;10437466;28;20252;-37
2023/01/04 10:43:20;;;;;;;2.20;1.93;;;;;;;8.53;52.31;100901.16;10434947;28;20272;-38
2023/01/04 10:48:45;;;;;;;3.83;2.40;;;;;;;8.83;51.76;100898.28;10441718;28;20235;-36
2023/01/04 10:53:56;;;;;;;3.60;2.77;;;;;;;8.94;51.88;100886.59;10427039;28;20605;-37
2023/01/04 10:59:08;;;;;;;2.23;2.03;;;;;;;8.87;52.41;100868.66;10433915;28;20228;-37
2023/01/04 11:06:39;;;;;;;3.27;2.20;;;;;;;5.71;59.34;100772.44;10432160;28;20807;-60
2023/01/04 11:11:46;;;;;;;3.17;2.23;;;;;;;6.28;58.75;100777.38;10391973;28;20234;-61
2023/01/04 11:16:50;;;;;;;2.47;2.27;;;;;;;6.45;58.39;100782.13;10381376;28;20723;-62
2023/01/04 11:22:02;;;;;;;2.90;2.70;;;;;;;7.04;56.55;100784.97;10344138;28;20275;-62
2023/01/04 11:27:15;;;;;;;3.63;2.50;;;;;;;7.12;56.71;100785.13;10375744;28;20621;-62
2023/01/04 11:32:55;;;;;;;2.37;2.20;;;;;;;8.09;54.62;100814.50;10382614;28;20270;-62
2023/01/04 11:38:09;;;;;;;2.80;2.50;;;;;;;7.68;55.89;100816.47;10383707;28;20232;-61
2023/01/04 11:43:19;;;;;;;2.70;2.50;;;;;;;7.30;56.33;100799.47;10386439;28;20820;-61
2023/01/04 11:48:42;;;;;;;4.87;2.53;;;;;;;7.68;55.15;100819.13;10365472;28;20245;-62
2023/01/04 11:53:45;;;;;;;4.13;2.87;;;;;;;7.67;55.48;100822.78;10369031;28;20356;-61
2023/01/04 11:59:05;;;;;;;3.70;2.17;;;;;;;7.90;56.08;100818.03;10386067;28;20236;-61
2023/01/04 12:04:27;;;;;;;2.60;2.40;;;;;;;7.75;56.07;100798.09;10384888;28;20348;-62
2023/01/04 12:09:31;;;;;;;3.07;2.73;;;;;;;7.34;57.38;100779.59;10380109;28;20249;-61
2023/01/04 12:14:36;;;;;;;3.07;2.77;;;;;;;8.27;55.54;100819.94;10367700;28;20260;-61
2023/01/04 12:19:43;;;;;;;2.97;2.67;;;;;;;8.15;55.60;100801.56;10352548;28;20830;-62
2023/01/04 12:24:45;;;;;;;4.30;2.70;;;;;;;7.62;56.04;100785.06;10318701;28;20230;-62
2023/01/04 12:29:54;;;;;;;2.77;2.47;;;;;;;8.46;54.75;100797.69;10361627;28;20293;-62
2023/01/04 12:34:56;;;;;;;2.30;2.17;;;;;;;8.42;54.77;100788.31;10329233;28;20245;-62
2023/01/04 12:39:58;;;;;;;3.73;2.37;;;;;;;8.50;55.23;100766.22;10345342;28;20245;-62
2023/01/04 12:45:02;;;;;;;2.53;2.23;;;;;;;8.55;55.12;100771.97;10363291;28;20237;-61
2023/01/04 12:50:12;;;;;;;2.33;2.13;;;;;;;8.14;55.50;100749.25;10357573;28;20251;-61
2023/01/04 12:55:50;;;;;;;3.50;2.63;;;;;;;8.59;54.96;100791.19;10360021;28;20730;-61
2023/01/04 13:00:51;;;;;;;2.33;2.23;;;;;;;7.48;55.91;100741.03;10339174;28;20382;-62
2023/01/04 13:06:03;;;;;;;5.07;2.20;;;;;;;7.68;56.61;100738.38;10325439;28;20236;-62
2023/01/04 13:11:23;;;;;;;3.57;2.80;;;;;;;8.59;54.58;100753.84;10344775;28;20241;-61
2023/01/04 13:16:30;;;;;;;2.10;2.00;;;;;;;6.36;58.08;100676.53;10317755;28;20237;-61
2023/01/04 13:21:41;;;;;;;4.40;3.90;;;;;;;9.11;54.55;100745.28;10312844;28;20265;-62
2023/01/04 13:26:50;;;;;;;2.03;1.90;;;;;;;7.20;57.33;100686.81;10317579;28;20249;-62
2023/01/04 13:31:58;;;;;;;3.73;2.70;;;;;;;8.42;55.80;100707.44;10315405;28;20781;-61
2023/01/04 13:37:06;;;;;;;2.37;2.17;;;;;;;8.98;54.17;100741.16;10314164;28;20659;-62
2023/01/04 13:42:26;;;;;;;2.40;2.20;;;;;;;8.95;54.07;100737.97;10340172;28;20271;-63
2023/01/04 13:47:32;;;;;;;4.87;2.33;;;;;;;8.89;54.63;100719.88;10369476;28;20249;-61
2023/01/04 13:52:34;;;;;;;2.50;2.30;;;;;;;8.88;54.21;100697.69;10361892;28;20689;-62
2023/01/04 13:58:01;;;;;;;1.90;1.80;;;;;;;8.18;55.92;100673.31;10362785;28;20241;-62
2023/01/04 14:03:09;;;;;;;2.50;2.30;;;;;;;7.88;55.63;100675.22;10355134;28;20236;-61
2023/01/04 14:08:11;;;;;;;2.70;2.50;;;;;;;8.85;54.83;100698.78;10362182;28;20261;-62
2023/01/04 14:13:16;;;;;;;2.40;2.20;;;;;;;8.99;54.88;100691.28;10360573;28;20748;-62
2023/01/04 14:18:29;;;;;;;2.27;2.10;;;;;;;8.95;54.69;100684.56;10369197;28;20244;-62
2023/01/04 14:23:37;;;;;;;2.27;2.07;;;;;;;8.50;55.37;100664.03;10358879;28;20240;-62
2023/01/04 14:28:39;;;;;;;2.30;2.20;;;;;;;8.94;54.81;100682.88;10330533;28;20899;-62
2023/01/04 14:33:52;;;;;;;2.20;2.00;;;;;;;9.59;53.58;100704.00;10315022;28;20245;-62
2023/01/04 14:38:56;;;;;;;2.00;1.90;;;;;;;8.99;54.73;100689.47;10334899;28;20244;-59
2023/01/04 14:43:58;;;;;;;2.40;2.27;;;;;;;8.98;54.77;100677.09;10340443;28;20240;-62
2023/01/04 14:49:00;;;;;;;1.97;1.83;;;;;;;9.33;54.10;100693.25;10349115;28;20238;-61
2023/01/04 14:54:01;;;;;;;2.60;2.40;;;;;;;8.19;56.04;100678.50;10347026;28;20278;-62
2023/01/04 14:59:03;;;;;;;2.67;2.47;;;;;;;10.20;52.97;100725.47;10356560;28;20662;-62
2023/01/04 15:04:06;;;;;;;3.27;2.37;;;;;;;8.90;55.04;100661.00;10352327;28;20243;-61
2023/01/04 15:09:08;;;;;;;2.20;2.00;;;;;;;9.06;54.83;100657.63;10336750;28;20337;-62
2023/01/04 15:14:10;;;;;;;3.63;2.13;;;;;;;9.23;54.86;100671.97;10356325;28;20748;-62
2023/01/04 15:19:12;;;;;;;2.13;1.97;;;;;;;8.96;54.52;100664.88;10358178;28;20614;-61
2023/01/04 15:24:13;;;;;;;2.10;1.90;;;;;;;8.29;56.51;100652.63;10339918;28;20325;-62
2023/01/04 15:29:15;;;;;;;2.67;2.47;;;;;;;8.78;54.77;100672.84;10299434;28;20624;-61
2023/01/04 15:34:17;;;;;;;2.10;1.90;;;;;;;7.59;57.83;100641.50;10343878;28;20235;-61
2023/01/04 15:39:18;;;;;;;3.53;2.50;;;;;;;9.44;55.75;100639.56;10319586;28;20238;-62
2023/01/04 15:44:20;;;;;;;1.97;1.87;;;;;;;7.84;59.05;100637.38;10320219;28;20240;-61
2023/01/04 15:49:22;;;;;;;3.27;2.50;;;;;;;8.44;58.79;100586.28;10314984;28;20866;-62
2023/01/04 15:54:25;;;;;;;2.37;2.17;;;;;;;8.05;59.25;100593.66;10371460;28;20588;-67
2023/01/04 15:59:27;;;;;;;8.60;2.67;;;;;;;8.09;58.41;100590.56;10378284;28;20246;-66
2023/01/04 16:04:28;;;;;;;2.07;1.97;;;;;;;8.10;59.45;100581.59;10373074;28;20761;-61
2023/01/04 16:09:30;;;;;;;2.50;2.30;;;;;;;7.88;58.81;100576.63;10319442;28;20226;-60
2023/01/04 16:14:32;;;;;;;2.60;2.50;;;;;;;8.36;58.86;100561.38;10327869;28;20218;-59
2023/01/04 16:19:33;;;;;;;2.43;2.10;;;;;;;8.79;59.14;100549.94;10335095;28;20234;-60
2023/01/04 16:24:35;;;;;;;3.47;2.27;;;;;;;9.47;57.09;100583.16;10350002;28;20241;-70
2023/01/04 16:29:57;;;;;;;2.53;2.33;;;;;;;8.31;59.47;100544.97;10364830;28;20253;-61
2023/01/04 16:34:59;;;;;;;2.60;2.40;;;;;;;8.71;58.67;100565.88;10355213;28;20249;-62
2023/01/04 16:40:00;;;;;;;2.63;2.20;;;;;;;8.48;60.14;100538.81;10361404;28;20319;-61
2023/01/04 16:45:10;;;;;;;2.00;1.90;;;;;;;7.08;62.41;100536.22;10351719;28;20316;-62
2023/01/04 16:50:12;;;;;;;2.63;2.47;;;;;;;6.73;64.12;100513.69;10357188;28;20245;-62
2023/01/04 16:55:14;;;;;;;2.67;2.23;;;;;;;7.41;62.69;100526.03;10350803;28;20757;-62
2023/01/04 17:00:24;;;;;;;2.10;2.00;;;;;;;7.08;64.53;100537.06;10320644;28;20786;-61
2023/01/04 17:05:25;;;;;;;2.67;2.47;;;;;;;7.89;63.05;100525.03;10344272;28;21061;-62
2023/01/04 17:10:27;;;;;;;3.00;2.80;;;;;;;7.16;63.80;100517.72;10340637;28;20658;-62
2023/01/04 17:15:30;;;;;;;2.50;2.30;;;;;;;8.33;62.71;100525.16;10336088;28;20234;-63
2023/01/04 17:20:51;;;;;;;2.47;2.20;;;;;;;8.44;63.05;100521.44;10330093;28;20405;-62
2023/01/04 17:25:53;;;;;;;2.23;2.13;;;;;;;6.69;66.93;100506.97;10327078;28;20238;-62
2023/01/04 17:30:56;;;;;;;2.17;2.07;;;;;;;7.85;63.51;100486.34;10311784;28;20237;-62
2023/01/04 17:36:04;;;;;;;2.90;2.10;;;;;;;7.84;64.28;100484.63;10358856;28;20231;-62
2023/01/04 17:41:23;;;;;;;2.00;1.90;;;;;;;8.53;62.60;100509.84;10356320;28;20236;-62
2023/01/04 17:46:26;;;;;;;2.00;1.90;;;;;;;7.62;65.30;100477.88;10360780;28;20237;-63
2023/01/04 17:51:28;;;;;;;2.67;2.47;;;;;;;7.92;63.54;100480.25;10352102;28;20321;-63
2023/01/04 17:56:32;;;;;;;2.77;2.37;;;;;;;7.97;64.44;100482.47;10358329;28;20234;-69
2023/01/04 18:01:34;;;;;;;3.43;2.60;;;;;;;6.98;65.67;100477.69;10349309;28;20307;-63
2023/01/04 18:06:37;;;;;;;2.50;2.30;;;;;;;7.71;64.75;100472.50;10356435;28;20325;-68
2023/01/04 18:11:40;;;;;;;2.77;2.50;;;;;;;8.38;63.77;100474.03;10354450;28;20241;-68
2023/01/04 18:16:57;;;;;;;2.60;2.43;;;;;;;8.57;62.45;100507.72;10354463;28;20241;-60
2023/01/04 18:21:59;;;;;;;2.70;2.50;;;;;;;8.33;62.17;100497.66;10345171;28;20396;-62
2023/01/04 18:27:01;;;;;;;4.83;2.63;;;;;;;7.77;65.25;100456.91;10340766;28;20763;-61
2023/01/04 18:32:24;;;;;;;3.10;2.53;;;;;;;7.04;65.70;100478.94;10346666;28;20233;-62
2023/01/04 18:37:26;;;;;;;2.57;2.27;;;;;;;7.49;64.74;100483.53;10337099;28;20316;-61
2023/01/04 18:42:28;;;;;;;3.13;2.80;;;;;;;8.14;63.42;100490.66;10335852;28;20239;-64
2023/01/04 18:47:31;;;;;;;4.47;3.50;;;;;;;8.97;61.64;100538.44;10333839;28;20290;-61
2023/01/04 18:52:34;;;;;;;4.17;2.80;;;;;;;9.52;59.72;100580.84;10309731;28;20321;-60
2023/01/04 18:57:37;;;;;;;3.77;3.07;;;;;;;8.32;60.60;100565.31;10325155;28;20614;-72
2023/01/04 19:02:38;;;;;;;2.77;2.40;;;;;;;8.22;62.56;100528.06;10352159;28;20501;-60
2023/01/04 19:07:41;;;;;;;3.17;2.50;;;;;;;9.34;60.60;100556.03;10362313;28;20229;-64
2023/01/04 19:12:42;;;;;;;2.73;2.43;;;;;;;9.55;59.32;100582.34;10366277;28;20243;-64
2023/01/04 19:17:44;;;;;;;3.30;3.00;;;;;;;8.93;59.58;100574.44;10361217;28;20725;-64
2023/01/04 19:22:46;;;;;;;3.93;2.40;;;;;;;8.63;61.25;100523.13;10363222;28;20622;-62
2023/01/04 19:27:47;;;;;;;1.97;1.83;;;;;;;8.06;62.16;100526.03;10349285;28;20231;-64
2023/01/04 19:32:49;;;;;;;4.90;2.90;;;;;;;8.95;60.07;100529.75;10311167;28;20241;-63
2023/01/04 19:37:50;;;;;;;2.00;1.90;;;;;;;9.34;59.48;100543.50;10326033;28;20237;-65
2023/01/04 19:42:52;;;;;;;2.50;2.30;;;;;;;9.25;58.12;100578.31;10336135;28;20904;-64
2023/01/04 19:47:54;;;;;;;2.33;2.13;;;;;;;8.89;60.10;100549.03;10339991;28;20818;-64
2023/01/04 19:52:55;;;;;;;2.30;2.10;;;;;;;8.88;60.31;100542.03;10340946;28;20236;-64
2023/01/04 19:57:58;;;;;;;2.50;2.30;;;;;;;9.80;57.70;100603.88;10345411;28;20300;-63
2023/01/04 20:02:59;;;;;;;2.30;2.13;;;;;;;8.52;61.10;100526.84;10343623;28;20245;-64
2023/01/04 20:08:01;;;;;;;2.30;2.10;;;;;;;10.07;57.43;100579.66;9473125;28;10000937;-65
2023/01/04 20:13:03;;;;;;;3.63;1.93;;;;;;;10.16;57.18;100585.88;10348647;28;20241;-65
2023/01/04 20:18:05;;;;;;;2.03;1.93;;;;;;;9.70;58.13;100567.44;10334635;28;20253;-64
2023/01/04 20:23:15;;;;;;;2.10;2.00;;;;;;;9.67;58.95;100569.56;10334937;28;20237;-63
2023/01/04 20:28:19;;;;;;;2.33;2.20;;;;;;;10.54;57.12;100599.66;10337104;28;20244;-64
2023/01/04 20:33:21;;;;;;;2.03;1.87;;;;;;;10.46;57.88;100588.94;10334748;28;20308;-63
2023/01/04 20:38:23;;;;;;;2.33;2.20;;;;;;;10.01;57.53;100569.59;10336017;28;20244;-65
2023/01/04 20:43:35;;;;;;;3.97;2.40;;;;;;;10.35;57.27;100592.78;10334556;28;20236;-66
2023/01/04 20:48:36;;;;;;;3.20;1.80;;;;;;;10.39;57.19;100585.25;10335909;28;20237;-65
2023/01/04 20:53:38;;;;;;;3.97;2.37;;;;;;;10.00;56.69;100575.09;10333078;28;20252;-63
2023/01/04 20:58:40;;;;;;;2.33;2.13;;;;;;;10.89;56.41;100581.69;10334004;28;20237;-65
2023/01/04 21:03:42;;;;;;;2.20;2.00;;;;;;;10.45;55.98;100582.75;10332049;28;20238;-64
2023/01/04 21:08:45;;;;;;;2.40;2.20;;;;;;;11.15;55.81;100583.34;10332718;28;20237;-63
2023/01/04 21:13:49;;;;;;;1.77;1.67;;;;;;;11.06;55.92;100567.25;10340250;28;20412;-63
2023/01/04 21:18:50;;;;;;;2.40;2.30;;;;;;;10.93;55.35;100550.88;10340649;28;20267;-65
2023/01/04 21:23:52;;;;;;;2.40;2.20;;;;;;;10.95;56.04;100534.63;10334286;28;20240;-65
2023/01/04 21:28:58;;;;;;;3.60;1.80;;;;;;;10.03;58.30;100500.75;10334424;28;20312;-64
2023/01/04 21:34:00;;;;;;;2.00;1.90;;;;;;;9.54;58.36;100500.53;10340808;28;20240;-61
2023/01/04 21:39:08;;;;;;;2.17;1.97;;;;;;;10.51;56.82;100509.00;10347259;28;20280;-61
2023/01/04 21:44:10;;;;;;;2.10;2.00;;;;;;;10.68;55.87;100497.31;10348048;28;20225;-61
2023/01/04 21:49:11;;;;;;;2.20;1.87;;;;;;;10.78;55.47;100502.53;10349630;28;20744;-61
2023/01/04 21:54:13;;;;;;;1.90;1.80;;;;;;;10.72;55.72;100483.59;10350697;28;20232;-61
2023/01/04 21:59:15;;;;;;;2.33;2.23;;;;;;;9.50;57.42;100465.31;10343593;28;20773;-61
2023/01/04 22:04:17;;;;;;;2.00;1.90;;;;;;;10.26;57.64;100431.41;10350900;28;20233;-61
2023/01/04 22:09:18;;;;;;;2.03;1.83;;;;;;;10.40;57.02;100426.41;10351239;28;20303;-61
2023/01/04 22:14:20;;;;;;;2.10;2.00;;;;;;;11.22;55.91;100456.59;10340962;28;20230;-62
2023/01/04 22:19:22;;;;;;;2.37;2.27;;;;;;;10.34;56.16;100460.00;10351772;28;20238;-61
2023/01/04 22:24:23;;;;;;;1.83;1.43;;;;;;;11.48;55.00;100476.09;10352266;28;20225;-60
2023/01/04 22:29:25;;;;;;;1.93;1.83;;;;;;;11.57;55.28;100465.16;10351372;28;20264;-60
2023/01/04 22:34:27;;;;;;;1.93;1.50;;;;;;;10.76;56.46;100418.03;10345858;28;20230;-59
2023/01/04 22:39:29;;;;;;;1.80;1.70;;;;;;;10.47;57.35;100397.97;10352132;28;20287;-61
2023/01/04 22:44:30;;;;;;;2.30;2.10;;;;;;;9.76;58.21;100417.09;10345379;28;20233;-61
2023/01/04 22:49:32;;;;;;;1.60;1.50;;;;;;;10.29;59.96;100380.28;10346375;28;20241;-61
2023/01/04 22:54:34;;;;;;;2.23;2.07;;;;;;;10.06;59.73;100371.25;10346305;28;20233;-61
2023/01/04 22:59:35;;;;;;;3.00;2.37;;;;;;;10.69;58.47;100394.56;10349786;28;20233;-61
2023/01/04 23:04:38;;;;;;;2.50;2.30;;;;;;;9.63;60.77;100365.13;10344700;28;20236;-61
2023/01/04 23:09:40;;;;;;;2.40;1.90;;;;;;;10.61;59.12;100370.50;10344455;28;20718;-61
2023/01/04 23:14:42;;;;;;;1.93;1.83;;;;;;;10.09;60.45;100352.16;10348162;28;20229;-61
2023/01/04 23:19:43;;;;;;;2.83;2.30;;;;;;;10.78;58.57;100359.78;10341447;28;20229;-63
2023/01/04 23:24:45;;;;;;;2.57;2.10;;;;;;;10.47;58.66;100350.63;10349623;28;20737;-61
2023/01/04 23:29:47;;;;;;;2.40;2.30;;;;;;;10.39;60.20;100336.44;10349758;28;20256;-61
2023/01/04 23:34:50;;;;;;;2.10;2.00;;;;;;;10.13;60.24;100332.94;10352645;28;20245;-62
2023/01/04 23:39:51;;;;;;;2.67;2.50;;;;;;;10.08;59.11;100331.78;10349394;28;20233;-61
2023/01/04 23:44:53;;;;;;;2.47;2.30;;;;;;;9.21;60.45;100348.16;10343361;28;20829;-61
2023/01/04 23:49:55;;;;;;;2.30;2.10;;;;;;;10.31;60.35;100327.44;10349418;28;20600;-61
2023/01/04 23:54:56;;;;;;;2.37;1.90;;;;;;;9.43;60.40;100345.88;10345439;28;20233;-60
2023/01/04 23:59:58;;;;;;;2.27;2.07;;;;;;;10.40;59.23;100343.47;10350353;28;20319;-61
